Time;durP1;ratioP1;P1;durP2;ratioP2;P2;SDS_P1;SDS_P2;PMS_P1;PMS_P2;Temp;Humidity;BMP_temperature;BMP_pressure;BME280_temperature;BME280_humidity;BME280_pressure;Samples;Min_cycle;Max_cycle;Signal;HPM_P1;HPM_P2
2021/07/22 00:01:10;;;;;;;14.00;9.63;;;;;;;20.31;55.15;102347.56;10486047;28;20062;-79
2021/07/22 00:06:11;;;;;;;11.90;9.23;;;;;;;20.26;55.40;102349.31;10506715;28;20047;-78
2021/07/22 00:11:11;;;;;;;14.52;9.43;;;;;;;19.52;55.24;102236.41;10505786;28;20046;-78
2021/07/22 00:16:16;;;;;;;13.88;9.85;;;;;;;20.16;55.21;102352.59;10506885;28;20075;-79
2021/07/22 00:21:16;;;;;;;20.15;11.27;;;;;;;20.10;55.48;102350.75;10487718;28;20464;-79
2021/07/22 00:26:16;;;;;;;26.25;9.70;;;;;;;20.04;55.52;102346.13;10506310;28;20079;-79
2021/07/22 00:31:17;;;;;;;14.25;11.10;;;;;;;19.33;56.19;102227.28;10487233;28;20100;-79
2021/07/22 00:36:17;;;;;;;19.15;10.73;;;;;;;19.99;56.67;102335.84;10504635;28;20034;-79
2021/07/22 00:41:18;;;;;;;15.75;12.45;;;;;;;19.97;56.30;102335.22;10505557;28;20037;-79
2021/07/22 00:46:18;;;;;;;16.38;12.05;;;;;;;19.93;56.55;102328.47;10504803;28;20472;-78
2021/07/22 00:51:19;;;;;;;16.45;12.02;;;;;;;18.94;56.71;102173.50;10506032;28;20044;-79
2021/07/22 00:56:19;;;;;;;18.15;12.32;;;;;;;19.73;56.61;102307.50;10488875;28;20036;-79
2021/07/22 01:01:19;;;;;;;23.50;12.77;;;;;;;19.83;56.42;102331.75;10506098;28;20125;-78
2021/07/22 01:06:20;;;;;;;26.25;13.35;;;;;;;19.81;56.87;102339.34;10505064;28;20055;-78
2021/07/22 01:11:20;;;;;;;21.48;13.75;;;;;;;19.77;57.05;102337.28;10485249;28;20119;-78
2021/07/22 01:16:21;;;;;;;20.05;11.98;;;;;;;19.74;57.05;102330.34;10506508;28;20543;-78
2021/07/22 01:21:22;;;;;;;17.75;14.23;;;;;;;19.65;58.20;102331.66;10504297;28;20040;-79
2021/07/22 01:26:23;;;;;;;22.65;12.63;;;;;;;19.67;57.45;102327.63;10504282;28;20044;-78
2021/07/22 01:31:24;;;;;;;21.00;13.55;;;;;;;19.65;57.42;102327.00;10503656;28;20141;-78
2021/07/22 01:36:25;;;;;;;20.45;14.27;;;;;;;19.60;57.51;102320.50;10487261;28;20029;-78
2021/07/22 01:41:25;;;;;;;20.85;13.93;;;;;;;19.24;56.35;102261.56;10485475;28;20111;-78
2021/07/22 01:46:26;;;;;;;25.88;15.27;;;;;;;19.54;57.25;102324.97;10486014;28;20380;-79
2021/07/22 01:51:26;;;;;;;23.90;14.52;;;;;;;19.53;57.68;102323.28;10485190;28;20056;-79
2021/07/22 01:56:27;;;;;;;20.40;13.35;;;;;;;19.52;57.28;102324.34;10468753;28;20043;-79
2021/07/22 02:01:27;;;;;;;23.17;17.60;;;;;;;19.51;57.83;102322.66;10507090;28;20047;-80
2021/07/22 02:06:28;;;;;;;27.52;16.58;;;;;;;19.47;57.47;102321.44;10518780;28;20047;-78
2021/07/22 02:11:28;;;;;;;26.75;17.98;;;;;;;19.11;57.35;102267.97;10498007;28;20052;-79
2021/07/22 02:16:28;;;;;;;31.95;17.60;;;;;;;19.40;57.64;102318.75;10504597;28;20419;-78
2021/07/22 02:21:29;;;;;;;29.88;19.02;;;;;;;19.38;57.87;102322.75;10501955;28;20111;-78
2021/07/22 02:26:30;;;;;;;28.70;19.20;;;;;;;19.37;57.93;102324.66;10504154;28;20430;-79
2021/07/22 02:31:30;;;;;;;43.55;20.80;;;;;;;19.35;58.50;102320.47;10503536;28;20124;-78
2021/07/22 02:36:32;;;;;;;32.28;21.15;;;;;;;19.34;58.82;102327.84;10502460;28;20149;-79
2021/07/22 02:41:32;;;;;;;25.58;18.55;;;;;;;18.74;58.69;102232.13;10483758;28;20450;-79
2021/07/22 02:46:35;;;;;;;34.90;20.85;;;;;;;19.31;58.47;102335.72;10483378;28;20064;-78
2021/07/22 02:51:35;;;;;;;30.10;18.25;;;;;;;19.31;58.49;102342.03;10500716;28;20040;-78
2021/07/22 02:56:36;;;;;;;29.30;18.70;;;;;;;19.27;58.38;102327.03;10500458;28;20119;-79
2021/07/22 03:01:36;;;;;;;33.95;18.20;;;;;;;19.07;58.60;102307.94;10500926;28;20037;-79
2021/07/22 03:06:39;;;;;;;30.65;20.30;;;;;;;19.08;58.97;102306.03;10499757;28;20040;-79
2021/07/22 03:11:40;;;;;;;34.67;18.13;;;;;;;19.20;58.55;102337.22;10483752;28;20040;-78
2021/07/22 03:16:40;;;;;;;26.92;19.63;;;;;;;19.21;59.68;102338.94;10483873;28;20515;-78
2021/07/22 03:21:40;;;;;;;37.45;18.55;;;;;;;19.19;59.17;102330.91;10499673;28;20035;-78
2021/07/22 03:26:41;;;;;;;29.55;17.08;;;;;;;19.15;59.72;102332.41;10498946;28;20450;-78
2021/07/22 03:31:41;;;;;;;24.08;14.40;;;;;;;18.91;59.37;102302.97;10465056;28;20036;-79
2021/07/22 03:36:44;;;;;;;27.73;15.38;;;;;;;19.03;60.31;102328.66;10482293;28;20064;-79
2021/07/22 03:41:48;;;;;;;23.65;14.15;;;;;;;19.07;59.89;102329.91;10482718;28;20055;-78
2021/07/22 03:46:48;;;;;;;16.83;14.15;;;;;;;19.03;60.33;102325.91;10480542;28;20052;-78
2021/07/22 03:51:54;;;;;;;21.77;12.02;;;;;;;19.01;58.93;102323.38;10458184;28;20388;-78
2021/07/22 03:56:54;;;;;;;19.27;13.85;;;;;;;19.03;60.44;102331.41;10498804;28;20029;-78
2021/07/22 04:01:55;;;;;;;17.98;13.13;;;;;;;19.03;59.83;102331.41;10498881;28;20033;-78
2021/07/22 04:06:55;;;;;;;15.35;12.63;;;;;;;18.98;60.44;102325.72;10498262;28;20487;-78
2021/07/22 04:11:56;;;;;;;18.60;12.13;;;;;;;18.89;59.98;102305.06;10481491;28;20080;-78
2021/07/22 04:16:56;;;;;;;18.90;12.80;;;;;;;19.03;60.85;102328.66;10497876;28;20040;-78
2021/07/22 04:21:59;;;;;;;15.55;11.70;;;;;;;19.07;60.72;102329.91;10483784;28;20473;-77
2021/07/22 04:27:00;;;;;;;16.48;10.60;;;;;;;19.14;60.55;102333.44;10504089;28;20361;-78
2021/07/22 04:32:01;;;;;;;25.05;10.40;;;;;;;19.25;60.02;102342.91;10468251;28;20029;-78
2021/07/22 04:37:04;;;;;;;17.85;11.57;;;;;;;19.33;59.42;102345.38;10499629;28;20044;-78
2021/07/22 04:42:04;;;;;;;25.02;10.57;;;;;;;18.99;59.48;102284.34;10499084;28;20130;-74
2021/07/22 04:47:05;;;;;;;14.93;9.95;;;;;;;19.60;59.96;102348.81;10484414;28;20214;-75
2021/07/22 04:52:05;;;;;;;14.27;11.18;;;;;;;19.87;59.43;102345.88;10504935;28;20041;-75
2021/07/22 04:57:06;;;;;;;10.05;9.02;;;;;;;20.17;57.77;102344.13;10505140;28;20029;-74
2021/07/22 05:02:06;;;;;;;17.38;9.00;;;;;;;20.29;58.27;102344.19;10505438;28;20103;-80
2021/07/22 05:07:07;;;;;;;9.07;8.05;;;;;;;20.42;58.02;102348.72;10488386;28;20028;-78
2021/07/22 05:12:08;;;;;;;14.27;9.00;;;;;;;21.49;55.98;102329.81;10488770;28;20464;-79
2021/07/22 05:17:08;;;;;;;10.82;8.85;;;;;;;22.87;53.32;102349.59;10486512;28;20062;-77
2021/07/22 05:22:08;;;;;;;9.27;7.93;;;;;;;23.33;52.04;102333.13;10487829;28;20147;-79
2021/07/22 05:27:13;;;;;;;9.25;6.13;;;;;;;23.74;51.59;102348.53;10489268;28;20067;-81
2021/07/22 05:32:13;;;;;;;9.23;5.90;;;;;;;24.52;50.28;102349.47;10470911;28;20027;-82
2021/07/22 05:37:14;;;;;;;8.65;7.43;;;;;;;24.96;49.05;102341.16;10486361;28;20039;-82
2021/07/22 05:42:14;;;;;;;9.93;7.25;;;;;;;25.19;48.48;102317.06;10505502;28;20063;-81
2021/07/22 05:47:15;;;;;;;8.73;6.72;;;;;;;25.80;47.72;102352.84;10469334;28;20040;-81
2021/07/22 05:52:15;;;;;;;9.82;6.20;;;;;;;25.41;46.76;102206.91;10486835;28;20036;-81
2021/07/22 05:57:16;;;;;;;12.27;6.95;;;;;;;26.70;46.69;102334.28;10488124;28;20034;-82
2021/07/22 06:02:16;;;;;;;7.53;5.57;;;;;;;26.54;46.16;102338.09;10487416;28;20031;-81
2021/07/22 06:07:17;;;;;;;6.38;5.72;;;;;;;26.59;47.07;102336.19;10502733;28;20490;-81
2021/07/22 06:12:17;;;;;;;10.88;6.82;;;;;;;27.11;44.29;102338.03;10443551;28;20057;-81
2021/07/22 06:17:18;;;;;;;13.88;7.47;;;;;;;26.94;45.30;102329.09;10447984;28;20127;-82
2021/07/22 06:22:19;;;;;;;6.90;5.97;;;;;;;27.24;44.35;102333.94;10452522;28;20103;-82
2021/07/22 06:27:22;;;;;;;13.18;6.72;;;;;;;26.52;43.82;102205.03;10455240;28;20546;-81
2021/07/22 06:32:23;;;;;;;8.90;6.28;;;;;;;27.51;42.96;102338.44;10434565;28;20080;-81
2021/07/22 06:37:23;;;;;;;7.78;5.45;;;;;;;28.07;42.70;102345.94;10468774;28;20094;-81
2021/07/22 06:42:24;;;;;;;6.03;5.43;;;;;;;28.63;41.97;102359.78;10439148;28;20518;-81
2021/07/22 06:47:25;;;;;;;8.85;6.40;;;;;;;28.86;41.72;102349.91;10462276;28;20066;-82
2021/07/22 06:52:25;;;;;;;6.10;5.50;;;;;;;29.11;40.00;102319.13;10463639;28;20116;-82
2021/07/22 06:57:25;;;;;;;17.02;6.07;;;;;;;28.17;41.37;102355.09;10426846;28;20174;-80
2021/07/22 07:02:26;;;;;;;14.00;5.50;;;;;;;26.73;44.82;102314.28;10457015;28;20071;-81
2021/07/22 07:07:27;;;;;;;5.93;5.38;;;;;;;26.40;44.12;102355.22;10436799;28;20443;-80
2021/07/22 07:12:28;;;;;;;6.85;5.32;;;;;;;26.33;44.41;102348.25;10413233;28;20068;-79
2021/07/22 07:17:28;;;;;;;12.25;6.13;;;;;;;26.20;45.03;102361.50;10458633;28;20117;-80
2021/07/22 07:22:29;;;;;;;7.72;5.97;;;;;;;27.18;44.22;102357.28;10444632;28;20043;-77
2021/07/22 07:27:30;;;;;;;6.07;5.50;;;;;;;27.24;44.20;102308.06;10493607;28;20060;-77
2021/07/22 07:32:30;;;;;;;6.18;5.57;;;;;;;29.31;40.32;102336.84;10439843;28;20048;-77
2021/07/22 07:37:31;;;;;;;8.35;6.53;;;;;;;29.43;39.63;102301.88;10475953;28;20131;-77
2021/07/22 07:42:37;;;;;;;8.95;5.85;;;;;;;30.43;40.53;102327.47;10494257;28;20067;-77
2021/07/22 07:47:38;;;;;;;;;;;;;;;30.83;40.88;102352.47;10494052;28;20382;-78
2021/07/22 07:52:39;;;;;;;4.78;4.45;;;;;;;30.54;39.70;102356.16;10476646;28;19920;-78
2021/07/22 07:57:39;;;;;;;7.50;6.03;;;;;;;30.25;39.59;102351.44;10494938;28;20083;-78
2021/07/22 08:02:40;;;;;;;11.25;6.35;;;;;;;29.93;39.33;102219.88;10492801;28;20056;-77
2021/07/22 08:07:40;;;;;;;7.57;5.72;;;;;;;31.87;38.67;102351.44;10474451;28;20115;-78
2021/07/22 08:18:29;;;;;;;7.97;5.50;;;;;;;32.46;34.60;102357.41;10485136;28;20049;-77
2021/07/22 08:23:29;;;;;;;5.22;4.72;;;;;;;32.25;35.61;102348.53;10501145;28;20028;-78
2021/07/22 08:28:30;;;;;;;9.35;4.97;;;;;;;32.71;34.65;102350.44;10482163;28;20112;-77
2021/07/22 08:33:31;;;;;;;10.52;5.70;;;;;;;31.01;36.79;102348.84;10500493;28;20038;-77
2021/07/22 08:38:31;;;;;;;4.72;4.15;;;;;;;32.13;34.77;102355.47;10464116;28;20119;-78
2021/07/22 08:43:32;;;;;;;6.65;4.53;;;;;;;30.15;35.96;102228.56;10496162;28;20044;-75
2021/07/22 08:48:34;;;;;;;5.10;4.68;;;;;;;30.76;37.31;102345.25;10478205;28;20115;-75
2021/07/22 08:53:35;;;;;;;15.15;6.25;;;;;;;30.06;39.10;102344.91;10496279;28;20044;-75
2021/07/22 08:58:39;;;;;;;8.50;5.70;;;;;;;29.34;40.89;102337.09;10479083;28;20394;-76
2021/07/22 09:03:39;;;;;;;9.95;5.80;;;;;;;29.05;38.83;102342.59;10483340;28;20036;-75
2021/07/22 09:08:40;;;;;;;6.15;5.55;;;;;;;29.88;37.50;102243.97;10504761;28;20048;-75
2021/07/22 09:13:40;;;;;;;4.45;4.15;;;;;;;31.15;35.92;102341.38;10466740;28;20044;-76
2021/07/22 09:18:44;;;;;;;5.65;4.95;;;;;;;29.24;40.55;102348.31;10499501;28;20116;-74
2021/07/22 09:24:05;;;;;;;9.27;4.40;;;;;;;29.69;43.59;102270.97;10499992;28;20043;-76
2021/07/22 09:29:12;;;;;;;8.02;4.78;;;;;;;28.39;41.33;102342.81;10498066;28;20465;-76
2021/07/22 09:34:26;;;;;;;6.72;5.20;;;;;;;30.01;42.61;102345.78;10479577;28;20036;-74
2021/07/22 09:39:30;;;;;;;5.93;4.90;;;;;;;31.96;35.38;102335.59;10499428;28;20100;-75
2021/07/22 09:44:39;;;;;;;5.47;4.97;;;;;;;31.20;38.08;102304.06;10498657;28;20106;-83
2021/07/22 09:49:41;;;;;;;8.38;5.57;;;;;;;31.64;34.59;102337.25;10479101;28;20050;-77
2021/07/22 09:54:41;;;;;;;8.68;5.50;;;;;;;31.11;37.91;102221.94;10497298;28;20044;-77
2021/07/22 09:59:43;;;;;;;5.18;4.70;;;;;;;33.25;33.39;102352.31;10478851;28;20155;-76
2021/07/22 10:04:52;;;;;;;5.32;3.88;;;;;;;31.89;35.92;102352.81;10494284;28;20108;-76
2021/07/22 10:09:53;;;;;;;5.72;5.28;;;;;;;32.46;33.21;102360.22;10459100;28;20129;-76
2021/07/22 10:14:55;;;;;;;8.68;4.93;;;;;;;33.65;32.39;102337.59;10493498;28;20104;-75
2021/07/22 10:19:59;;;;;;;4.43;4.07;;;;;;;33.16;33.46;102347.78;10475197;28;20055;-76
2021/07/22 10:25:00;;;;;;;6.53;3.78;;;;;;;31.64;34.54;102291.63;10493823;28;20036;-76
2021/07/22 10:30:07;;;;;;;4.95;4.28;;;;;;;32.35;32.59;102343.53;10494544;28;20044;-76
2021/07/22 10:35:08;;;;;;;11.20;5.72;;;;;;;32.38;33.79;102325.25;10476463;28;20352;-75
2021/07/22 10:40:10;;;;;;;5.15;4.65;;;;;;;32.34;32.91;102341.06;10494265;28;20111;-74
2021/07/22 10:45:24;;;;;;;5.85;3.50;;;;;;;31.92;36.89;102331.78;10494862;28;20040;-75
2021/07/22 10:50:53;;;;;;;7.28;5.53;;;;;;;31.63;35.75;102340.38;10494207;28;20104;-76
2021/07/22 10:55:54;;;;;;;5.00;4.25;;;;;;;32.30;34.95;102345.63;10448352;28;20094;-74
2021/07/22 11:00:54;;;;;;;8.85;5.43;;;;;;;31.67;34.46;102319.84;10457858;28;20496;-76
2021/07/22 11:05:58;;;;;;;12.05;5.10;;;;;;;31.63;35.65;102320.78;10476084;28;20032;-75
2021/07/22 11:11:03;;;;;;;19.23;3.97;;;;;;;33.50;34.06;102313.53;10459435;28;20052;-75
2021/07/22 11:16:25;;;;;;;7.78;5.40;;;;;;;32.83;34.40;102317.03;10441198;28;20140;-75
2021/07/22 11:21:36;;;;;;;4.45;3.75;;;;;;;33.61;35.61;102305.69;10494503;28;20067;-74
2021/07/22 11:26:38;;;;;;;5.68;4.10;;;;;;;33.08;30.69;102145.28;10461621;28;20064;-74
2021/07/22 11:31:43;;;;;;;9.27;4.30;;;;;;;34.34;31.28;102295.00;10478367;28;20032;-80
2021/07/22 11:36:43;;;;;;;5.10;4.55;;;;;;;34.58;31.48;102286.16;10461781;28;20396;-77
2021/07/22 11:42:03;;;;;;;5.93;5.32;;;;;;;34.67;32.68;102293.44;10476687;28;20039;-76
2021/07/22 11:47:13;;;;;;;3.80;3.60;;;;;;;34.86;31.97;102279.06;10476950;28;20064;-78
2021/07/22 11:52:14;;;;;;;5.75;3.60;;;;;;;35.48;29.72;102291.13;10493437;28;20484;-76
2021/07/22 11:57:17;;;;;;;7.07;4.70;;;;;;;34.90;30.81;102291.31;10481256;28;20112;-76
2021/07/22 12:02:18;;;;;;;4.68;4.28;;;;;;;34.07;31.26;102153.50;10452289;27;20379;-76
2021/07/22 12:07:26;;;;;;;5.43;5.03;;;;;;;35.06;32.69;102260.72;10484442;28;20028;-75
2021/07/22 12:12:26;;;;;;;8.75;4.72;;;;;;;35.35;29.60;102282.53;10498755;28;20049;-76
2021/07/22 12:17:27;;;;;;;4.38;4.07;;;;;;;35.45;29.76;102286.19;10483558;28;20044;-79
2021/07/22 12:22:37;;;;;;;4.45;3.45;;;;;;;34.79;32.61;102283.53;10482189;28;20544;-77
2021/07/22 12:27:37;;;;;;;10.05;4.68;;;;;;;35.22;31.59;102277.09;10464797;28;20055;-76
2021/07/22 12:32:55;;;;;;;4.53;4.13;;;;;;;35.03;32.81;102269.81;10503391;28;20043;-77
2021/07/22 12:38:19;;;;;;;4.97;4.05;;;;;;;34.91;36.42;102276.09;10450401;28;20091;-79
2021/07/22 12:43:20;;;;;;;5.20;4.63;;;;;;;34.71;31.08;102259.84;10473216;28;20051;-80
2021/07/22 12:48:37;;;;;;;4.00;3.70;;;;;;;34.47;33.00;102258.31;10466120;28;20123;-78
2021/07/22 12:53:44;;;;;;;5.75;4.15;;;;;;;35.00;31.92;102264.81;10483644;28;20052;-78
2021/07/22 12:58:50;;;;;;;6.15;3.78;;;;;;;33.81;31.92;102251.75;10482305;28;20052;-80
2021/07/22 13:03:53;;;;;;;10.18;4.07;;;;;;;32.54;33.25;102185.59;10500128;28;20048;-79
2021/07/22 13:08:54;;;;;;;4.30;3.90;;;;;;;33.52;33.19;102258.72;10463811;28;20032;-77
2021/07/22 13:13:55;;;;;;;4.63;4.32;;;;;;;33.23;33.03;102247.91;10465685;28;20061;-78
2021/07/22 13:18:56;;;;;;;3.90;3.33;;;;;;;33.53;34.02;102235.09;10438223;28;20451;-78
2021/07/22 13:23:56;;;;;;;4.30;3.95;;;;;;;33.59;32.61;102246.19;10457236;28;20379;-78
2021/07/22 13:28:57;;;;;;;5.47;4.15;;;;;;;33.00;34.44;102160.09;10437986;28;20116;-78
2021/07/22 13:33:57;;;;;;;4.97;4.30;;;;;;;32.83;32.56;102205.66;10421136;28;20048;-78
2021/07/22 13:38:58;;;;;;;4.00;3.25;;;;;;;33.76;33.99;102230.25;10440246;28;20104;-78
2021/07/22 13:43:58;;;;;;;3.25;2.95;;;;;;;33.91;32.36;102228.97;10460206;28;20049;-80
2021/07/22 13:48:58;;;;;;;3.33;3.13;;;;;;;33.78;32.82;102180.16;10460664;28;20094;-76
2021/07/22 13:53:59;;;;;;;8.77;3.80;;;;;;;33.65;35.20;102225.25;10457838;28;20088;-78
2021/07/22 13:59:00;;;;;;;23.92;4.28;;;;;;;32.45;33.64;102129.41;10436202;28;20032;-75
2021/07/22 14:04:00;;;;;;;6.85;4.28;;;;;;;32.23;34.19;102106.94;10435650;28;20402;-78
2021/07/22 14:09:01;;;;;;;2.92;2.78;;;;;;;32.99;33.20;102220.16;10452445;28;20044;-77
2021/07/22 14:14:02;;;;;;;3.28;3.05;;;;;;;32.81;33.59;102204.31;10454599;28;20125;-79
2021/07/22 14:19:02;;;;;;;3.45;3.13;;;;;;;33.04;35.04;102206.00;10434397;28;20053;-78
2021/07/22 14:24:03;;;;;;;4.13;3.08;;;;;;;31.78;34.18;102061.97;10434284;28;20089;-81
2021/07/22 14:29:04;;;;;;;3.88;3.53;;;;;;;32.09;35.69;102177.84;10434480;28;20040;-77
2021/07/22 14:34:04;;;;;;;6.78;4.18;;;;;;;31.32;35.05;102104.88;10436647;28;20064;-78
2021/07/22 14:39:05;;;;;;;5.05;3.47;;;;;;;31.71;35.49;102194.84;10453067;28;20116;-80
2021/07/22 14:44:05;;;;;;;3.70;3.20;;;;;;;31.27;36.05;102196.22;10418167;28;20039;-80
2021/07/22 14:49:06;;;;;;;5.05;3.97;;;;;;;30.69;39.62;102182.56;10454409;28;20387;-78
2021/07/22 14:54:09;;;;;;;6.07;3.35;;;;;;;28.88;37.35;102044.56;10439004;28;20434;-80
2021/07/22 14:59:10;;;;;;;4.05;3.60;;;;;;;29.43;38.08;102073.03;10411417;28;20492;-80
2021/07/22 15:04:10;;;;;;;4.93;3.13;;;;;;;30.12;38.20;102190.03;10459335;28;20032;-80
2021/07/22 15:09:11;;;;;;;10.55;3.58;;;;;;;30.26;36.90;102182.63;10454674;28;20529;-80
2021/07/22 15:14:12;;;;;;;3.63;3.35;;;;;;;30.06;37.09;102183.72;10454774;28;20064;-80
2021/07/22 15:19:25;;;;;;;6.63;4.43;;;;;;;28.64;40.99;102025.00;10475120;28;20041;-80
2021/07/22 15:24:25;;;;;;;3.47;3.17;;;;;;;29.31;36.75;102139.56;10476170;28;20105;-80
2021/07/22 15:29:27;;;;;;;3.05;2.85;;;;;;;29.44;37.76;102177.94;10492861;28;20033;-80
2021/07/22 15:34:28;;;;;;;4.45;4.05;;;;;;;28.83;39.39;102166.47;10473919;28;20334;-80
2021/07/22 15:39:28;;;;;;;9.38;3.85;;;;;;;28.21;39.92;102111.13;10439919;28;20033;-80
2021/07/22 15:44:29;;;;;;;20.92;3.75;;;;;;;27.93;39.15;102083.97;10473217;28;20033;-79
2021/07/22 15:49:29;;;;;;;3.50;3.30;;;;;;;28.52;39.69;102156.34;10493178;28;20173;-79
2021/07/22 15:54:30;;;;;;;4.95;3.92;;;;;;;28.51;38.88;102140.75;10475034;28;20051;-79
2021/07/22 15:59:34;;;;;;;6.20;3.25;;;;;;;28.66;44.33;102167.69;10478918;28;20055;-79
2021/07/22 16:04:40;;;;;;;3.85;3.65;;;;;;;28.26;40.34;102172.34;10467228;28;20075;-79
2021/07/22 16:09:41;;;;;;;4.78;3.72;;;;;;;26.87;40.87;101990.25;10475790;28;20370;-80
2021/07/22 16:14:41;;;;;;;3.88;3.58;;;;;;;27.93;41.03;102173.06;10476896;28;20052;-79
2021/07/22 16:19:41;;;;;;;3.42;3.15;;;;;;;27.77;40.69;102158.38;10478239;28;20075;-80
2021/07/22 16:24:42;;;;;;;5.90;3.40;;;;;;;27.31;41.97;102163.97;10482077;28;20043;-80
2021/07/22 16:29:42;;;;;;;8.70;3.55;;;;;;;26.58;41.76;102131.72;10464202;28;20388;-80
2021/07/22 16:34:43;;;;;;;8.50;3.65;;;;;;;26.34;42.66;102130.50;10464315;28;20117;-81
2021/07/22 16:39:43;;;;;;;9.52;3.92;;;;;;;25.84;44.82;102137.53;10479749;28;20033;-80
2021/07/22 16:44:44;;;;;;;12.20;3.85;;;;;;;25.48;45.01;102156.75;10507316;28;20044;-81
2021/07/22 16:49:44;;;;;;;7.55;3.28;;;;;;;24.81;45.36;102097.16;10507187;28;20501;-80
2021/07/22 16:54:45;;;;;;;7.32;3.55;;;;;;;24.59;46.73;102125.78;10506574;28;20157;-80
2021/07/22 16:59:45;;;;;;;4.97;3.92;;;;;;;23.23;46.33;101927.53;10487801;28;20115;-80
2021/07/22 17:04:46;;;;;;;2.53;2.30;;;;;;;24.30;46.24;102144.53;10489423;28;20119;-79
2021/07/22 17:09:46;;;;;;;3.90;3.47;;;;;;;24.39;45.87;102133.03;10471508;28;20051;-79
2021/07/22 17:14:47;;;;;;;8.02;3.38;;;;;;;23.85;47.25;102090.31;10488735;28;20136;-80
2021/07/22 17:19:47;;;;;;;3.58;2.95;;;;;;;24.05;47.44;102128.47;10470927;28;20032;-79
2021/07/22 17:24:48;;;;;;;4.20;3.80;;;;;;;24.14;46.99;102123.31;10487064;28;20029;-80
2021/07/22 17:29:48;;;;;;;8.27;3.75;;;;;;;23.99;47.45;102118.44;10485763;28;20113;-79
2021/07/22 17:34:49;;;;;;;10.15;4.15;;;;;;;23.34;48.59;102091.53;10500242;28;20048;-80
2021/07/22 17:39:50;;;;;;;2.88;2.58;;;;;;;23.70;48.86;102120.56;10462998;28;20089;-79
2021/07/22 17:44:50;;;;;;;7.25;3.55;;;;;;;23.66;48.89;102120.19;10496947;28;20086;-80
2021/07/22 17:49:51;;;;;;;5.57;3.72;;;;;;;23.48;48.94;102131.53;10497905;28;20040;-79
2021/07/22 17:54:51;;;;;;;10.05;3.40;;;;;;;23.56;48.44;102130.28;10477564;28;20373;-80
2021/07/22 17:59:52;;;;;;;5.15;3.70;;;;;;;22.33;48.75;101965.38;10495935;28;20060;-80
2021/07/22 18:04:53;;;;;;;6.97;3.53;;;;;;;23.15;48.75;102107.56;10478711;28;20048;-80
2021/07/22 18:09:54;;;;;;;9.07;4.18;;;;;;;23.20;49.78;102129.75;10479162;28;20045;-80
2021/07/22 18:14:54;;;;;;;6.85;3.10;;;;;;;22.97;49.09;102112.28;10462290;28;20125;-80
2021/07/22 18:19:55;;;;;;;7.32;3.40;;;;;;;22.95;49.14;102128.25;10467106;28;20420;-80
2021/07/22 18:24:56;;;;;;;13.13;4.78;;;;;;;22.88;49.61;102127.56;10470922;28;20062;-80
2021/07/22 18:29:59;;;;;;;8.18;3.92;;;;;;;22.73;49.68;102128.13;10489367;28;20055;-80
2021/07/22 18:35:35;;;;;;;14.80;4.80;;;;;;;22.62;50.49;102130.94;10496319;28;20040;-80
2021/07/22 18:40:38;;;;;;;9.00;4.65;;;;;;;22.15;50.46;102109.91;10474599;28;20129;-78
2021/07/22 18:45:39;;;;;;;5.40;3.88;;;;;;;22.45;49.48;102131.75;10474446;28;20044;-77
2021/07/22 18:50:40;;;;;;;5.95;4.72;;;;;;;22.29;50.05;102132.53;10490800;28;20112;-76
2021/07/22 18:55:47;;;;;;;8.63;3.83;;;;;;;22.18;50.05;102130.69;10494422;28;20033;-77
2021/07/22 19:00:47;;;;;;;9.15;4.45;;;;;;;22.00;51.04;102139.91;10474778;28;20041;-77
2021/07/22 19:05:48;;;;;;;8.23;5.72;;;;;;;21.89;50.63;102144.41;10457883;28;20481;-77
2021/07/22 19:10:48;;;;;;;4.65;3.75;;;;;;;21.64;50.33;102122.63;10474156;28;20021;-76
2021/07/22 19:15:49;;;;;;;11.85;5.45;;;;;;;21.58;51.21;102143.72;10491649;28;20117;-77
2021/07/22 19:20:49;;;;;;;4.75;4.32;;;;;;;21.49;50.97;102158.94;10473305;28;20040;-78
2021/07/22 19:25:50;;;;;;;8.80;5.35;;;;;;;21.31;51.18;102142.47;10470825;28;20036;-76
2021/07/22 19:30:51;;;;;;;8.80;3.67;;;;;;;21.18;51.55;102150.97;10488986;28;20098;-77
2021/07/22 19:35:51;;;;;;;10.48;5.43;;;;;;;21.01;51.88;102151.69;10490048;28;20029;-77
2021/07/22 19:40:52;;;;;;;6.55;4.55;;;;;;;20.88;52.12;102143.63;10489109;28;20669;-79
2021/07/22 19:45:52;;;;;;;11.27;4.30;;;;;;;20.81;51.50;102153.91;10471702;28;20108;-80
2021/07/22 19:50:53;;;;;;;13.00;4.15;;;;;;;20.60;52.66;102147.84;10470816;28;20462;-80
2021/07/22 19:55:55;;;;;;;9.52;4.88;;;;;;;20.60;52.04;102155.28;10489359;28;20093;-78
2021/07/22 20:00:56;;;;;;;10.80;4.45;;;;;;;20.40;53.45;102153.63;10490186;28;20385;-82
2021/07/22 20:05:56;;;;;;;9.05;5.15;;;;;;;20.39;53.10;102153.88;10490158;28;20178;-80
2021/07/22 20:10:57;;;;;;;10.10;5.38;;;;;;;20.16;53.13;102136.16;10489962;28;20191;-81
2021/07/22 20:15:58;;;;;;;7.10;5.03;;;;;;;20.23;53.46;102158.09;10456611;28;20048;-82
2021/07/22 20:20:59;;;;;;;14.13;8.30;;;;;;;20.11;53.66;102160.78;10483194;28;20036;-82
2021/07/22 20:26:03;;;;;;;14.57;4.90;;;;;;;20.02;53.53;102145.66;10470566;28;20032;-82
2021/07/22 20:31:05;;;;;;;12.02;4.55;;;;;;;19.72;54.06;102115.34;10486553;28;20051;-82
2021/07/22 20:36:06;;;;;;;13.73;5.28;;;;;;;19.88;54.85;102157.88;10482739;28;20040;-82
2021/07/22 20:41:06;;;;;;;11.50;5.25;;;;;;;19.78;55.14;102150.16;10513401;28;20119;-82
2021/07/22 20:46:10;;;;;;;5.25;4.75;;;;;;;19.79;55.10;102156.50;10464085;28;20076;-81
2021/07/22 20:51:14;;;;;;;10.32;7.18;;;;;;;19.74;54.92;102152.50;10480124;28;20082;-82
2021/07/22 20:56:19;;;;;;;12.55;5.80;;;;;;;19.72;55.09;102154.66;10486521;28;20041;-83
2021/07/22 21:01:29;;;;;;;8.15;4.55;;;;;;;19.16;54.91;102064.13;10487400;28;20036;-82
2021/07/22 21:06:30;;;;;;;10.68;6.22;;;;;;;19.62;55.01;102165.31;10465060;28;20048;-80
2021/07/22 21:11:31;;;;;;;10.93;5.90;;;;;;;19.56;55.07;102144.25;10480523;28;20140;-82
2021/07/22 21:16:32;;;;;;;5.35;4.80;;;;;;;18.57;56.40;101995.81;10480211;28;20131;-81
2021/07/22 21:21:32;;;;;;;7.85;6.82;;;;;;;19.44;55.97;102144.16;10464455;28;20062;-79
2021/07/22 21:26:33;;;;;;;18.52;6.72;;;;;;;19.44;56.07;102135.06;10496865;28;20091;-81
2021/07/22 21:31:35;;;;;;;7.88;7.07;;;;;;;19.41;55.64;102135.53;10483472;28;20047;-82
2021/07/22 21:36:36;;;;;;;6.53;5.57;;;;;;;18.48;56.41;102023.75;10479373;28;20040;-82
2021/07/22 21:41:39;;;;;;;11.38;5.22;;;;;;;19.23;56.22;102208.53;10452809;28;20044;-82
2021/07/22 21:46:40;;;;;;;16.95;5.78;;;;;;;18.24;56.04;101990.59;10480534;28;20046;-79
2021/07/22 21:51:40;;;;;;;11.02;5.93;;;;;;;18.47;56.60;102047.59;10477608;28;20371;-79
2021/07/22 21:56:41;;;;;;;11.02;6.05;;;;;;;18.98;56.22;102144.53;10463902;28;20036;-79
2021/07/22 22:01:43;;;;;;;10.57;7.43;;;;;;;18.87;57.08;102172.72;10462019;28;20036;-79
2021/07/22 22:06:44;;;;;;;7.07;5.53;;;;;;;18.82;57.15;102143.19;10462200;28;20028;-79
2021/07/22 22:11:54;;;;;;;7.15;5.93;;;;;;;18.48;56.92;102108.78;10477755;28;20032;-79
2021/07/22 22:16:55;;;;;;;10.98;6.88;;;;;;;18.72;57.33;102149.16;10476221;28;20139;-80
2021/07/22 22:21:56;;;;;;;12.35;6.60;;;;;;;18.72;56.81;102149.16;10494299;28;20416;-79
2021/07/22 22:26:57;;;;;;;9.55;6.50;;;;;;;18.63;56.41;102147.72;10475357;28;20040;-80
2021/07/22 22:31:58;;;;;;;8.18;5.45;;;;;;;18.50;57.83;102142.31;10477409;28;20040;-80
2021/07/22 22:37:05;;;;;;;7.65;6.25;;;;;;;18.33;57.43;102134.59;10475310;28;20348;-79
2021/07/22 22:42:20;;;;;;;;;;;;;;;18.40;56.99;102142.78;10473720;28;20048;-79
2021/07/22 22:47:21;;;;;;;8.65;5.63;;;;;;;18.13;57.46;102136.59;10492644;28;19921;-80
2021/07/22 22:52:23;;;;;;;8.95;6.50;;;;;;;17.05;57.60;101939.97;10476031;28;20101;-79
2021/07/22 22:57:27;;;;;;;14.15;6.00;;;;;;;18.18;58.65;102144.16;10481405;28;20491;-79
2021/07/22 23:02:27;;;;;;;9.52;6.38;;;;;;;18.11;58.86;102149.69;10482834;28;20376;-79